Time;durP1;ratioP1;P1;durP2;ratioP2;P2;SDS_P1;SDS_P2;PMS_P1;PMS_P2;Temp;Humidity;BMP_temperature;BMP_pressure;BME280_temperature;BME280_humidity;BME280_pressure;Samples;Min_cycle;Max_cycle;Signal;HPM_P1;HPM_P2
2023/01/20 00:02:16;;;;;;;7.35;4.47;;;;;;;5.99;64.88;99864.94;5117458;28;20363;-83
2023/01/20 00:05:01;;;;;;;4.22;3.65;;;;;;;6.17;64.66;99870.47;5117534;28;20039;-83
2023/01/20 00:07:45;;;;;;;5.55;4.40;;;;;;;6.34;63.60;99876.00;5107528;28;20050;-84
2023/01/20 00:10:30;;;;;;;11.33;5.73;;;;;;;6.46;63.28;99870.81;5101885;28;20077;-85
2023/01/20 00:13:14;;;;;;;7.32;4.55;;;;;;;6.06;64.90;99875.31;5115083;28;20292;-84
2023/01/20 00:16:02;;;;;;;8.30;5.43;;;;;;;6.25;64.47;99875.13;5114771;28;20042;-85
2023/01/20 00:18:46;;;;;;;12.23;6.15;;;;;;;6.23;64.61;99871.94;5112113;28;20047;-84
2023/01/20 00:21:33;;;;;;;;;;;;;;;6.11;64.01;99874.38;5115666;28;20407;-82
2023/01/20 00:24:18;;;;;;;6.75;4.80;;;;;;;5.86;65.01;99870.34;5110887;28;19912;-84
2023/01/20 00:27:03;;;;;;;6.43;4.13;;;;;;;5.53;66.55;99872.44;5112660;28;20433;-84
2023/01/20 00:29:49;;;;;;;11.68;4.82;;;;;;;5.66;65.48;99871.59;5123400;28;20046;-84
2023/01/20 00:32:43;;;;;;;9.15;5.57;;;;;;;5.76;65.34;99871.38;5109652;28;20517;-84
2023/01/20 00:35:28;;;;;;;7.45;5.30;;;;;;;6.07;64.57;99879.59;5100566;28;20046;-84
2023/01/20 00:38:14;;;;;;;6.00;3.55;;;;;;;6.05;64.87;99881.00;5104211;28;20051;-84
2023/01/20 00:40:59;;;;;;;12.32;5.82;;;;;;;6.22;64.36;99889.25;5112955;28;20055;-85
2023/01/20 00:43:44;;;;;;;6.28;4.75;;;;;;;6.18;63.96;99882.88;5107531;28;20050;-86
2023/01/20 00:46:29;;;;;;;10.15;5.55;;;;;;;6.28;63.95;99879.91;5114678;28;20050;-86
2023/01/20 00:49:13;;;;;;;7.43;5.27;;;;;;;6.23;64.21;99883.53;5123925;28;20042;-86
2023/01/20 00:51:58;;;;;;;6.05;4.15;;;;;;;6.17;63.82;99875.88;5126076;28;20552;-82
2023/01/20 00:54:43;;;;;;;8.60;4.97;;;;;;;6.03;64.61;99885.91;5110974;28;20406;-83
2023/01/20 00:57:28;;;;;;;5.38;4.20;;;;;;;6.03;64.55;99885.91;5110685;28;20337;-85
2023/01/20 01:00:12;;;;;;;11.20;7.05;;;;;;;5.74;65.58;99887.06;5109811;28;20050;-83
2023/01/20 01:02:57;;;;;;;6.10;4.45;;;;;;;6.03;67.57;99891.31;5114475;28;20529;-85
2023/01/20 01:05:42;;;;;;;9.90;4.80;;;;;;;5.92;65.52;99894.25;5112037;28;20058;-84
2023/01/20 01:08:27;;;;;;;7.68;4.75;;;;;;;6.00;65.57;99901.59;5111464;28;20406;-84
2023/01/20 01:11:12;;;;;;;7.47;4.85;;;;;;;5.82;65.19;99902.53;5102939;28;20038;-84
2023/01/20 01:13:57;;;;;;;6.88;4.70;;;;;;;6.12;66.97;99905.66;5101349;28;20047;-84
2023/01/20 01:16:42;;;;;;;9.52;6.43;;;;;;;6.19;65.06;99914.97;5109333;28;20050;-85
2023/01/20 01:19:26;;;;;;;8.98;5.70;;;;;;;6.28;65.69;99910.41;5110282;28;20050;-84
2023/01/20 01:22:11;;;;;;;;;;;;;;;6.23;63.93;99923.22;5120463;28;20038;-85
2023/01/20 01:24:56;;;;;;;7.40;5.28;;;;;;;6.24;64.24;99912.13;5119474;28;19911;-84
2023/01/20 01:27:41;;;;;;;8.80;5.40;;;;;;;6.03;64.33;99915.59;5118001;28;20050;-83
2023/01/20 01:30:25;;;;;;;8.02;5.20;;;;;;;6.12;63.64;99909.19;5117329;28;20054;-84
2023/01/20 01:33:09;;;;;;;6.57;4.43;;;;;;;6.08;65.57;99916.28;5121161;28;20050;-84
2023/01/20 01:35:56;;;;;;;13.75;6.70;;;;;;;6.14;65.20;99916.97;5105109;28;20034;-83
2023/01/20 01:38:42;;;;;;;13.45;6.95;;;;;;;6.02;64.84;99912.09;5114633;28;20046;-83
2023/01/20 01:41:26;;;;;;;;;;;;;;;6.12;67.33;99911.06;5112660;28;20050;-84
2023/01/20 01:44:12;;;;;;;10.10;6.10;;;;;;;6.27;66.28;99899.91;5121017;28;19911;-84
2023/01/20 01:46:56;;;;;;;8.55;6.18;;;;;;;6.17;66.38;99895.56;5118951;28;20045;-85
2023/01/20 01:49:41;;;;;;;6.68;4.97;;;;;;;6.25;66.47;99894.81;5124295;28;20547;-83
2023/01/20 01:52:26;;;;;;;8.50;5.32;;;;;;;6.27;66.41;99892.63;5121894;28;20054;-82
2023/01/20 01:55:12;;;;;;;7.93;4.45;;;;;;;6.30;66.18;99900.09;5113873;28;20041;-82
2023/01/20 01:57:58;;;;;;;8.77;5.47;;;;;;;6.27;65.05;99889.13;5109651;28;20050;-84
2023/01/20 02:00:45;;;;;;;8.95;5.47;;;;;;;6.14;64.60;99882.69;5122084;28;20054;-84
2023/01/20 02:03:41;;;;;;;11.35;5.35;;;;;;;6.07;66.26;99879.59;5121126;28;20047;-83
2023/01/20 02:06:31;;;;;;;6.60;5.43;;;;;;;6.05;65.09;99881.00;5104168;28;20051;-83
2023/01/20 02:09:17;;;;;;;9.82;5.90;;;;;;;6.05;63.63;99876.41;5105168;28;20046;-81
2023/01/20 02:12:06;;;;;;;7.30;5.43;;;;;;;5.95;63.81;99863.94;5109299;28;20434;-83
2023/01/20 02:14:54;;;;;;;10.43;6.80;;;;;;;5.90;63.26;99876.75;5119408;28;20046;-82
2023/01/20 02:17:58;;;;;;;9.20;6.40;;;;;;;5.89;63.04;99870.56;5109326;28;20058;-83
2023/01/20 02:21:20;;;;;;;9.52;5.82;;;;;;;5.80;63.04;99872.34;5119248;28;20050;-83
2023/01/20 02:24:10;;;;;;;9.85;7.38;;;;;;;5.59;63.27;99860.41;5111120;28;20038;-82
2023/01/20 02:27:12;;;;;;;9.98;7.38;;;;;;;5.80;63.38;99864.25;5107313;28;20050;-83
2023/01/20 02:30:35;;;;;;;9.27;6.50;;;;;;;5.82;63.22;99856.69;5108671;28;20042;-83
2023/01/20 02:33:41;;;;;;;12.20;6.72;;;;;;;5.70;63.29;99852.91;5117781;28;20054;-82
2023/01/20 02:36:41;;;;;;;9.27;6.43;;;;;;;5.69;62.81;99854.81;5119024;28;20039;-81
2023/01/20 02:39:35;;;;;;;8.43;6.68;;;;;;;5.52;62.90;99851.97;5114246;28;20054;-82
2023/01/20 02:42:39;;;;;;;7.85;5.03;;;;;;;5.34;62.91;99858.25;5125232;28;20399;-83
2023/01/20 02:45:41;;;;;;;6.70;5.00;;;;;;;5.21;62.83;99854.50;5119500;28;20045;-83
2023/01/20 02:48:35;;;;;;;9.65;4.40;;;;;;;5.06;61.78;99855.59;5123552;28;20058;-83
2023/01/20 02:51:28;;;;;;;5.32;3.10;;;;;;;4.93;61.87;99858.28;5121407;28;20521;-83
2023/01/20 02:54:17;;;;;;;5.88;3.80;;;;;;;5.43;60.18;99864.56;5128617;28;20046;-83
2023/01/20 02:57:06;;;;;;;5.45;3.92;;;;;;;5.61;58.83;99869.00;5128049;28;20057;-83
2023/01/20 02:59:54;;;;;;;6.30;3.72;;;;;;;5.52;58.78;99860.03;5121933;28;20042;-82
2023/01/20 03:02:41;;;;;;;4.55;3.60;;;;;;;5.68;59.22;99857.81;5115263;28;20049;-82
2023/01/20 03:05:30;;;;;;;6.72;4.07;;;;;;;5.30;59.88;99858.06;5126124;28;20050;-82
2023/01/20 03:08:17;;;;;;;5.57;4.25;;;;;;;4.58;62.55;99860.53;5117843;28;20241;-83
2023/01/20 03:11:04;;;;;;;7.18;4.93;;;;;;;5.22;60.16;99866.06;5125693;28;20050;-84
2023/01/20 03:13:53;;;;;;;5.57;3.50;;;;;;;5.50;58.84;99867.63;5127412;28;20050;-83
2023/01/20 03:16:38;;;;;;;4.53;3.65;;;;;;;5.44;58.35;99866.94;5118098;28;20070;-83
2023/01/20 03:19:23;;;;;;;4.55;3.15;;;;;;;5.04;58.41;99870.44;5125317;28;20057;-83
2023/01/20 03:22:08;;;;;;;24.35;3.97;;;;;;;4.87;59.65;99864.88;5110375;28;20042;-83
2023/01/20 03:24:55;;;;;;;3.25;2.40;;;;;;;5.05;58.81;99872.84;5113605;28;20042;-84
2023/01/20 03:27:40;;;;;;;4.22;3.13;;;;;;;5.18;59.09;99866.66;5114867;28;20240;-83
2023/01/20 03:30:25;;;;;;;3.95;3.47;;;;;;;5.44;58.34;99868.81;5115695;28;20055;-85
2023/01/20 03:33:12;;;;;;;3.45;2.45;;;;;;;4.91;59.49;99866.66;5113458;28;20046;-83
2023/01/20 03:35:57;;;;;;;3.75;3.10;;;;;;;4.93;59.96;99872.53;5114615;28;20042;-82
2023/01/20 03:38:44;;;;;;;3.63;2.35;;;;;;;4.89;60.41;99871.53;5103198;28;20047;-82
2023/01/20 03:41:35;;;;;;;4.60;3.22;;;;;;;5.18;59.24;99871.28;5091158;28;20054;-82
2023/01/20 03:45:06;;;;;;;4.10;2.78;;;;;;;5.10;58.83;99870.06;5114965;28;20031;-82
2023/01/20 03:48:25;;;;;;;3.50;3.00;;;;;;;5.18;58.66;99870.47;5105560;28;20058;-82
2023/01/20 03:51:19;;;;;;;5.28;3.92;;;;;;;5.11;58.68;99868.16;5114507;28;20042;-82
2023/01/20 03:54:11;;;;;;;3.88;2.65;;;;;;;5.10;58.79;99880.84;5089549;28;20055;-86
2023/01/20 03:57:07;;;;;;;5.15;3.95;;;;;;;4.96;59.22;99873.84;5089800;28;20050;-84
2023/01/20 03:59:53;;;;;;;4.93;3.58;;;;;;;4.88;59.73;99869.94;5114770;28;20062;-85
2023/01/20 04:02:39;;;;;;;9.10;3.95;;;;;;;4.52;61.27;99874.38;5113389;28;20043;-86
2023/01/20 04:05:26;;;;;;;5.97;4.10;;;;;;;4.55;61.86;99868.41;5109056;28;20422;-85
2023/01/20 04:08:13;;;;;;;5.10;3.78;;;;;;;4.75;61.68;99870.72;5115741;28;20042;-86
2023/01/20 04:11:03;;;;;;;6.40;3.85;;;;;;;4.72;61.64;99868.66;5123892;28;20054;-86
2023/01/20 04:13:49;;;;;;;5.47;4.22;;;;;;;4.71;61.74;99867.03;5109001;28;20034;-87
2023/01/20 04:16:35;;;;;;;7.25;4.93;;;;;;;4.96;61.21;99874.66;5104267;28;20050;-87
2023/01/20 04:19:20;;;;;;;6.80;4.75;;;;;;;4.79;61.52;99871.72;5102176;28;20042;-86
2023/01/20 04:22:23;;;;;;;3.97;3.05;;;;;;;4.46;62.34;99872.88;5111675;28;20054;-86
2023/01/20 04:25:31;;;;;;;5.75;4.25;;;;;;;4.60;62.79;99873.69;5099766;28;20046;-86
2023/01/20 04:28:16;;;;;;;7.55;4.07;;;;;;;4.83;62.43;99874.63;5127735;28;20053;-86
2023/01/20 04:31:01;;;;;;;;;;;;;;;4.76;61.98;99869.66;5125735;28;20050;-87
2023/01/20 04:33:46;;;;;;;6.47;4.35;;;;;;;4.57;62.69;99871.63;5109157;28;19926;-86
2023/01/20 04:36:31;;;;;;;4.90;3.42;;;;;;;4.40;63.23;99871.34;5111441;28;20051;-86
2023/01/20 04:39:16;;;;;;;9.35;3.38;;;;;;;4.79;61.71;99879.81;5116351;28;20048;-86
2023/01/20 04:42:01;;;;;;;7.20;4.18;;;;;;;4.90;60.97;99886.63;5118996;28;20038;-87
2023/01/20 04:44:46;;;;;;;5.97;3.88;;;;;;;4.82;61.29;99879.22;5128894;28;20062;-86
2023/01/20 04:47:32;;;;;;;8.75;4.45;;;;;;;4.98;60.88;99880.53;5125416;28;20536;-85
2023/01/20 04:50:17;;;;;;;9.02;5.80;;;;;;;4.73;62.27;99881.00;5107916;28;20046;-85
2023/01/20 04:53:02;;;;;;;10.52;6.30;;;;;;;4.88;62.40;99888.78;5118762;28;20050;-86
2023/01/20 04:55:47;;;;;;;8.38;5.93;;;;;;;4.64;63.28;99880.09;5120722;28;20034;-86
2023/01/20 04:58:32;;;;;;;11.10;6.10;;;;;;;4.75;63.41;99894.97;5114742;28;20038;-86
2023/01/20 05:01:17;;;;;;;9.48;5.82;;;;;;;4.82;63.03;99890.00;5129780;28;20042;-85
2023/01/20 05:04:02;;;;;;;;;;;;;;;4.88;62.83;99896.06;5125588;28;20038;-85
2023/01/20 05:06:46;;;;;;;11.57;7.85;;;;;;;4.57;63.34;99895.84;5119111;28;19918;-86
2023/01/20 05:09:31;;;;;;;9.15;7.03;;;;;;;4.52;63.41;99895.94;5107966;28;20413;-87
2023/01/20 05:12:16;;;;;;;9.80;6.43;;;;;;;4.31;64.41;99898.16;5114687;28;20042;-85
2023/01/20 05:15:01;;;;;;;10.90;6.63;;;;;;;4.71;63.42;99893.97;5115829;28;20457;-86
2023/01/20 05:17:45;;;;;;;10.77;6.55;;;;;;;4.49;64.02;99907.25;5115216;28;20041;-85
2023/01/20 05:20:31;;;;;;;13.93;8.60;;;;;;;4.66;63.62;99902.94;5123116;28;20057;-87
2023/01/20 05:23:15;;;;;;;11.15;6.70;;;;;;;4.84;63.20;99906.66;5127379;28;20433;-85
2023/01/20 05:26:00;;;;;;;15.10;7.95;;;;;;;4.03;64.63;99918.75;5121273;28;20563;-85
2023/01/20 05:28:45;;;;;;;8.35;6.32;;;;;;;3.68;65.96;99916.53;5110763;28;20113;-85
2023/01/20 05:31:30;;;;;;;10.63;5.72;;;;;;;3.95;65.01;99919.41;5104811;28;20117;-86
2023/01/20 05:34:15;;;;;;;;;;;;;;;3.87;65.39;99923.53;5111991;28;20025;-86
2023/01/20 05:37:00;;;;;;;15.55;7.95;;;;;;;3.97;65.25;99927.97;5112173;28;19912;-86
2023/01/20 05:39:45;;;;;;;10.98;6.35;;;;;;;4.28;64.61;99923.75;5115320;28;20046;-88
2023/01/20 05:42:31;;;;;;;11.05;6.20;;;;;;;4.36;63.97;99924.19;5118078;28;20038;-86
2023/01/20 05:45:16;;;;;;;13.25;7.43;;;;;;;4.49;63.57;99928.81;5114054;28;20045;-86
2023/01/20 05:48:02;;;;;;;7.97;4.82;;;;;;;4.20;63.86;99931.69;5112193;28;20037;-86
2023/01/20 05:50:47;;;;;;;9.63;4.78;;;;;;;4.39;63.06;99923.59;5124450;28;20051;-86
2023/01/20 05:53:33;;;;;;;4.50;3.05;;;;;;;4.34;62.86;99934.44;5134603;27;20058;-84
2023/01/20 05:56:18;;;;;;;6.07;3.92;;;;;;;4.40;62.15;99925.19;5119478;28;20034;-85
2023/01/20 05:59:05;;;;;;;15.57;4.20;;;;;;;4.11;62.93;99931.56;5119875;28;20042;-86
2023/01/20 06:01:50;;;;;;;8.60;4.60;;;;;;;4.41;67.05;99937.56;5120325;28;20517;-83
2023/01/20 06:04:34;;;;;;;7.38;2.63;;;;;;;4.66;63.57;99939.84;5112087;28;20544;-83
2023/01/20 06:07:19;;;;;;;7.00;3.40;;;;;;;4.84;64.55;99946.25;5109566;28;20063;-83
2023/01/20 06:10:04;;;;;;;3.92;2.65;;;;;;;5.20;66.88;99946.41;5098313;28;20047;-83
2023/01/20 06:12:53;;;;;;;3.53;2.20;;;;;;;5.12;61.87;99945.22;5115995;28;20048;-83
2023/01/20 06:15:38;;;;;;;6.97;2.67;;;;;;;5.01;62.02;99950.00;5112418;28;20050;-83
2023/01/20 06:18:23;;;;;;;2.75;2.15;;;;;;;4.89;60.74;99946.97;5120409;28;20054;-83
2023/01/20 06:21:08;;;;;;;3.92;2.53;;;;;;;4.96;61.90;99949.28;5102930;28;20046;-82
2023/01/20 06:23:53;;;;;;;5.32;2.90;;;;;;;5.37;66.96;99952.03;5102774;28;20051;-83
2023/01/20 06:26:38;;;;;;;7.30;3.47;;;;;;;5.79;66.28;99957.06;5117300;28;20411;-83
2023/01/20 06:29:23;;;;;;;7.38;3.65;;;;;;;5.57;61.51;99954.31;5098977;28;20542;-83
2023/01/20 06:32:08;;;;;;;5.93;3.60;;;;;;;5.41;61.32;99959.22;5104737;28;20042;-82
2023/01/20 06:34:53;;;;;;;;;;;;;;;5.73;65.07;99961.00;5102274;28;20329;-83
2023/01/20 06:37:37;;;;;;;7.30;3.90;;;;;;;5.66;64.56;99963.28;5106124;28;19912;-82
2023/01/20 06:40:22;;;;;;;4.03;2.40;;;;;;;5.22;61.82;99958.50;5104579;28;20050;-82
2023/01/20 06:43:07;;;;;;;3.17;2.28;;;;;;;5.12;62.78;99958.69;5101731;28;20043;-82
2023/01/20 06:45:52;;;;;;;6.00;2.75;;;;;;;5.11;62.34;99959.78;5110277;28;20051;-82
2023/01/20 06:48:37;;;;;;;8.48;3.08;;;;;;;5.12;62.12;99962.19;5093014;28;20051;-82
2023/01/20 06:51:21;;;;;;;6.40;3.42;;;;;;;5.11;62.66;99979.44;5112235;28;20051;-82
2023/01/20 06:54:06;;;;;;;5.22;3.22;;;;;;;5.30;62.76;99975.88;5103937;28;20043;-81
2023/01/20 06:56:51;;;;;;;7.35;3.08;;;;;;;5.96;69.30;99978.88;5112476;28;20049;-82
2023/01/20 06:59:35;;;;;;;5.43;2.78;;;;;;;6.74;68.32;99980.34;5099887;28;20415;-83
2023/01/20 07:02:20;;;;;;;11.00;3.83;;;;;;;7.26;65.80;99973.31;5103761;28;20051;-83
2023/01/20 07:05:06;;;;;;;8.07;3.85;;;;;;;8.20;63.09;99980.13;5117728;28;20042;-83
2023/01/20 07:07:51;;;;;;;10.50;3.17;;;;;;;8.92;65.17;99982.19;5113915;28;20050;-83
2023/01/20 07:10:36;;;;;;;9.80;3.53;;;;;;;8.20;59.77;99990.13;5116044;28;20042;-82
2023/01/20 07:13:21;;;;;;;6.63;2.95;;;;;;;8.21;61.46;99992.53;5116288;28;20063;-83
2023/01/20 07:16:06;;;;;;;6.55;3.20;;;;;;;8.61;60.68;99995.13;5126535;28;20046;-83
2023/01/20 07:18:52;;;;;;;11.75;3.63;;;;;;;8.91;61.10;99997.66;5109188;28;20050;-83
2023/01/20 07:21:37;;;;;;;10.40;4.13;;;;;;;8.96;58.44;100007.53;5120541;28;20050;-82
2023/01/20 07:24:22;;;;;;;9.60;5.57;;;;;;;8.24;55.35;100002.72;5126968;28;20053;-83
2023/01/20 07:27:07;;;;;;;6.53;3.47;;;;;;;7.69;56.26;100002.44;5125901;28;20049;-82
2023/01/20 07:29:52;;;;;;;6.28;3.60;;;;;;;7.37;55.89;100011.69;5125709;28;20049;-83
2023/01/20 07:32:36;;;;;;;15.45;5.55;;;;;;;7.17;58.87;100021.13;5129402;28;20046;-82
2023/01/20 07:35:21;;;;;;;7.47;3.08;;;;;;;7.35;59.47;100022.03;5126735;28;20058;-82
2023/01/20 07:38:05;;;;;;;4.75;2.80;;;;;;;7.95;61.29;100022.28;5106980;28;20039;-83
2023/01/20 07:40:50;;;;;;;3.38;2.70;;;;;;;8.00;56.69;100024.84;5108327;28;20043;-83
2023/01/20 07:43:35;;;;;;;4.43;3.03;;;;;;;7.83;58.60;100023.97;5128178;28;20544;-82
2023/01/20 07:46:20;;;;;;;;;;;;;;;9.49;59.63;100042.38;5125835;28;20050;-82
2023/01/20 07:49:05;;;;;;;4.65;2.85;;;;;;;8.59;56.59;100042.31;5124784;28;19920;-82
2023/01/20 07:51:50;;;;;;;13.45;2.67;;;;;;;8.06;53.07;100037.13;5114400;28;20042;-82
2023/01/20 07:54:34;;;;;;;9.18;3.05;;;;;;;8.12;59.50;100045.91;5111443;28;20047;-82
2023/01/20 07:57:19;;;;;;;4.90;2.08;;;;;;;9.27;58.90;100054.22;5127979;28;20658;-81
2023/01/20 08:00:04;;;;;;;8.35;2.78;;;;;;;10.46;55.32;100059.50;5121396;28;20053;-81
2023/01/20 08:02:53;;;;;;;11.27;2.58;;;;;;;11.30;51.01;100068.38;5123702;28;20047;-81
2023/01/20 08:05:37;;;;;;;3.20;1.48;;;;;;;10.51;45.95;100066.66;5122797;28;20030;-81
2023/01/20 08:08:22;;;;;;;4.88;1.73;;;;;;;9.68;45.54;100053.63;5132143;28;20042;-81
2023/01/20 08:11:09;;;;;;;2.15;1.30;;;;;;;8.74;45.61;100061.91;5132104;28;20405;-82
2023/01/20 08:13:54;;;;;;;5.53;2.50;;;;;;;8.67;49.16;100065.13;5131944;28;20049;-83
2023/01/20 08:16:39;;;;;;;3.85;1.65;;;;;;;9.04;54.10;100060.19;5119405;28;20045;-78
2023/01/20 08:19:27;;;;;;;;;;;;;;;10.49;53.09;100066.19;5130019;28;20061;-82
2023/01/20 08:22:12;;;;;;;3.08;1.73;;;;;;;10.27;49.36;100068.06;5136951;27;19923;-81
2023/01/20 08:24:57;;;;;;;4.38;1.88;;;;;;;9.26;43.30;100060.78;5126895;28;20042;-82
2023/01/20 08:27:41;;;;;;;9.13;2.05;;;;;;;8.52;51.12;100060.19;5114381;28;20050;-81
2023/01/20 08:30:26;;;;;;;9.32;2.10;;;;;;;9.39;55.49;100070.66;5130698;28;20050;-80
2023/01/20 08:33:11;;;;;;;10.05;1.63;;;;;;;11.08;50.96;100073.06;5116104;28;20430;-82
2023/01/20 08:35:58;;;;;;;9.73;3.22;;;;;;;12.08;47.97;100071.03;5129107;28;20517;-81
2023/01/20 08:38:43;;;;;;;13.73;2.95;;;;;;;12.24;47.56;100080.13;5109655;28;20054;-82
2023/01/20 08:41:32;;;;;;;4.65;1.92;;;;;;;11.63;47.63;100082.75;5116994;28;20035;-81
2023/01/20 08:44:17;;;;;;;14.23;2.13;;;;;;;11.43;49.04;100078.16;5126168;28;20051;-83
2023/01/20 08:47:02;;;;;;;13.23;1.80;;;;;;;11.95;48.04;100081.91;5125373;28;20140;-82
2023/01/20 08:49:46;;;;;;;5.25;2.65;;;;;;;12.05;48.56;100077.94;5109190;28;20043;-82
2023/01/20 08:52:32;;;;;;;6.28;1.98;;;;;;;12.03;48.82;100082.16;5125322;28;20055;-82
2023/01/20 08:55:18;;;;;;;10.27;2.15;;;;;;;12.06;46.96;100081.47;5113983;28;20055;-83
2023/01/20 08:58:03;;;;;;;11.55;2.03;;;;;;;12.25;49.28;100079.75;5111406;28;20050;-82
2023/01/20 09:00:48;;;;;;;6.60;1.55;;;;;;;12.66;47.82;100075.97;5125626;28;20046;-82
2023/01/20 09:03:33;;;;;;;4.30;1.58;;;;;;;12.60;46.95;100082.78;5108226;28;20525;-82
2023/01/20 09:06:20;;;;;;;3.90;1.65;;;;;;;12.99;45.59;100086.69;5125987;28;20046;-83
2023/01/20 09:09:05;;;;;;;2.05;1.75;;;;;;;13.21;45.29;100088.09;5093175;28;20055;-81
2023/01/20 09:11:50;;;;;;;5.25;1.40;;;;;;;13.09;44.26;100094.38;5089699;28;20521;-82
2023/01/20 09:14:34;;;;;;;;;;;;;;;13.37;43.95;100091.66;5094544;28;20059;-82
2023/01/20 09:17:19;;;;;;;;;;;;;;;13.23;42.94;100094.00;5098783;28;19916;-82
2023/01/20 09:20:03;;;;;;;;;;;;;;;13.45;42.53;100093.44;5110548;28;19920;-81
2023/01/20 09:22:48;;;;;;;;;;;;;;;13.16;40.75;100093.78;5118961;28;19916;-82
2023/01/20 09:25:33;;;;;;;;;;;;;;;12.83;42.71;100096.72;5123763;28;19916;-82
2023/01/20 09:28:17;;;;;;;;;;;;;;;12.36;43.56;100094.53;5122993;28;20322;-79
2023/01/20 09:31:04;;;;;;;;;;;;;;;12.14;41.90;100099.66;5118653;28;19916;-83
2023/01/20 09:33:48;;;;;;;4.47;1.47;;;;;;;11.95;42.55;100102.91;5111439;28;20487;-81
2023/01/20 09:36:33;;;;;;;3.33;0.85;;;;;;;11.44;40.79;100102.34;5109219;28;20055;-82
2023/01/20 09:45:58;;;;;;;2.42;1.33;;;;;;;11.80;39.45;100114.47;5107001;28;20517;-85
2023/01/20 09:55:45;;;;;;;2.28;1.65;;;;;;;11.54;37.67;100131.06;5107731;28;20051;-84
2023/01/20 09:58:59;;;;;;;6.93;1.63;;;;;;;11.60;37.75;100127.00;5120448;28;20410;-84
2023/01/20 10:01:46;;;;;;;;;;;;;;;10.94;40.60;100129.69;5121174;28;20125;-82
2023/01/20 10:04:41;;;;;;;;;;;;;;;9.58;40.82;100124.56;5120090;28;19915;-77
2023/01/20 10:07:33;;;;;;;;;;;;;;;9.03;41.55;100121.75;5102276;28;19916;-79
2023/01/20 10:10:27;;;;;;;;;;;;;;;8.61;43.04;100125.22;5108840;28;19919;-79
2023/01/20 10:13:19;;;;;;;;;;;;;;;8.34;44.20;100121.63;5113938;28;20306;-81
2023/01/20 10:16:06;;;;;;;;;;;;;;;8.16;44.69;100118.06;5102284;28;19920;-79
2023/01/20 10:18:56;;;;;;;;;;;;;;;8.14;45.07;100128.41;5104350;28;20381;-79
2023/01/20 10:21:43;;;;;;;;;;;;;;;8.04;44.03;100119.75;5104860;28;19912;-79
2023/01/20 10:24:30;;;;;;;;;;;;;;;8.02;43.79;100113.88;5104848;28;19912;-79
2023/01/20 10:27:14;;;;;;;;;;;;;;;7.95;43.90;100119.72;5104262;28;19915;-79
2023/01/20 10:30:06;;;;;;;;;;;;;;;7.94;42.76;100114.63;5125044;28;19912;-79
2023/01/20 10:32:59;;;;;;;;;;;;;;;7.84;42.13;100123.81;5110388;28;20389;-79
2023/01/20 10:35:46;;;;;;;;;;;;;;;7.83;40.74;100110.59;5124469;28;19919;-79
2023/01/20 10:38:35;;;;;;;;;;;;;;;7.77;41.34;100109.94;5124369;28;19911;-79
2023/01/20 10:41:38;;;;;;;;;;;;;;;7.81;41.43;100112.81;5125110;28;19912;-79
2023/01/20 10:44:23;;;;;;;;;;;;;;;7.79;41.69;100113.13;5112839;28;19912;-79
2023/01/20 10:47:13;;;;;;;;;;;;;;;7.84;40.23;100106.78;5117928;28;19912;-79
2023/01/20 10:50:10;;;;;;;;;;;;;;;7.76;41.60;100107.53;5121804;28;19915;-79
2023/01/20 10:52:55;;;;;;;;;;;;;;;7.84;39.74;100114.91;5125927;28;19911;-79
2023/01/20 10:55:54;;;;;;;;;;;;;;;7.72;39.70;100100.03;5113956;28;19916;-78
2023/01/20 10:58:43;;;;;;;;;;;;;;;7.71;40.14;100103.88;5120254;28;19920;-79
2023/01/20 11:01:27;;;;;;;;;;;;;;;7.71;40.39;100103.88;5120560;28;19920;-78
2023/01/20 11:04:16;;;;;;;;;;;;;;;7.73;38.43;100106.25;5119936;28;19912;-79
2023/01/20 11:07:02;;;;;;;;;;;;;;;7.62;41.05;100105.72;5119791;28;19912;-79
2023/01/20 11:09:47;;;;;;;;;;;;;;;7.74;39.82;100105.94;5102065;28;20366;-79
2023/01/20 11:12:35;;;;;;;;;;;;;;;7.76;40.04;100094.00;5114983;28;19912;-78
2023/01/20 11:15:21;;;;;;;;;;;;;;;7.79;40.33;100094.19;5116821;28;19915;-78
2023/01/20 11:18:12;;;;;;;;;;;;;;;7.82;40.00;100092.78;5120834;28;20374;-78
2023/01/20 11:20:59;;;;;;;;;;;;;;;7.82;39.83;100087.34;5113528;28;20309;-79
2023/01/20 11:23:48;;;;;;;;;;;;;;;7.89;40.96;100090.41;5124582;28;19911;-79
2023/01/20 11:26:35;;;;;;;;;;;;;;;7.89;40.04;100088.50;5112813;28;19911;-78
2023/01/20 11:29:19;;;;;;;;;;;;;;;7.93;39.82;100086.75;5094947;28;20194;-79
2023/01/20 11:32:21;;;;;;;;;;;;;;;7.98;41.34;100078.47;5103647;28;19912;-79
2023/01/20 11:35:21;;;;;;;;;;;;;;;7.86;41.55;100077.50;5113476;28;19915;-79
2023/01/20 11:38:22;;;;;;;;;;;;;;;8.03;42.24;100067.50;5114092;28;19912;-79
2023/01/20 11:41:16;;;;;;;;;;;;;;;8.04;41.57;100065.59;5110231;28;19912;-79
2023/01/20 11:44:00;;;;;;;;;;;;;;;8.00;41.66;100060.03;5103997;28;19912;-79
2023/01/20 11:46:45;;;;;;;;;;;;;;;8.03;42.29;100061.28;5108990;28;20390;-79
2023/01/20 11:49:29;;;;;;;;;;;;;;;8.03;41.86;100064.00;5112970;28;19911;-79
2023/01/20 11:52:20;;;;;;;;;;;;;;;8.08;41.68;100063.84;5098354;28;19912;-79
2023/01/20 11:55:07;;;;;;;;;;;;;;;8.14;43.56;100068.81;5110990;28;20193;-79
2023/01/20 11:57:52;;;;;;;;;;;;;;;8.18;42.21;100060.09;5105558;28;19912;-79
2023/01/20 12:00:41;;;;;;;;;;;;;;;8.15;41.54;100061.50;5112218;28;19934;-78
2023/01/20 12:03:35;;;;;;;;;;;;;;;8.15;41.49;100058.78;5108465;28;20002;-78
2023/01/20 12:06:25;;;;;;;;;;;;;;;8.18;40.34;100058.16;5117403;28;19911;-78
2023/01/20 12:09:11;;;;;;;;;;;;;;;8.30;40.66;100057.59;5117224;28;19915;-78
2023/01/20 12:11:58;;;;;;;;;;;;;;;8.43;40.95;100054.72;5117412;28;20363;-79
2023/01/20 12:14:45;;;;;;;;;;;;;;;8.50;40.40;100052.34;5104064;28;19916;-78
2023/01/20 12:17:40;;;;;;;;;;;;;;;8.59;40.99;100046.94;5123634;28;19915;-78
2023/01/20 12:20:28;;;;;;;;;;;;;;;8.64;40.20;100048.69;5123396;28;19916;-78
2023/01/20 12:23:20;;;;;;;;;;;;;;;8.62;39.80;100046.31;5123865;28;19911;-78
2023/01/20 12:26:05;;;;;;;;;;;;;;;8.63;39.85;100044.41;5116245;28;20051;-79
2023/01/20 12:28:53;;;;;;;;;;;;;;;8.58;39.82;100043.41;5112605;28;19911;-79
2023/01/20 12:31:37;;;;;;;;;;;;;;;8.85;39.59;100045.03;5121469;28;19911;-79
2023/01/20 12:34:27;;;;;;;;;;;;;;;8.84;36.88;100045.34;5116353;28;19915;-79
2023/01/20 12:37:31;;;;;;;;;;;;;;;8.87;38.01;100040.09;5123630;28;20373;-79
2023/01/20 12:40:28;;;;;;;;;;;;;;;8.94;38.23;100039.59;5101815;28;19912;-79
2023/01/20 12:43:16;;;;;;;;;;;;;;;9.07;37.47;100041.34;5101795;28;19912;-80
2023/01/20 12:46:17;;;;;;;;;;;;;;;9.13;35.64;100047.41;5097693;28;19911;-80
2023/01/20 12:49:01;;;;;;;;;;;;;;;9.10;35.33;100040.69;5120448;28;20375;-80
2023/01/20 12:51:59;;;;;;;;;;;;;;;9.07;35.06;100032.41;5122077;28;19912;-80
2023/01/20 12:54:55;;;;;;;;;;;;;;;9.16;34.30;100033.97;5104227;28;19916;-80
2023/01/20 12:57:49;;;;;;;;;;;;;;;9.10;34.42;100031.75;5120987;28;19915;-80
2023/01/20 13:00:48;;;;;;;;;;;;;;;9.06;34.51;100031.59;5122112;28;20383;-80
2023/01/20 13:04:04;;;;;;;;;;;;;;;9.14;33.32;100030.00;5119233;28;19912;-82
2023/01/20 13:06:52;;;;;;;;;;;;;;;9.15;34.02;100035.09;5101843;28;20398;-82
2023/01/20 13:09:51;;;;;;;;;;;;;;;9.20;34.78;100029.50;5109106;28;19916;-80
2023/01/20 13:12:54;;;;;;;;;;;;;;;9.42;34.36;100032.00;5113015;28;20382;-81
2023/01/20 13:15:40;;;;;;;;;;;;;;;9.57;33.36;100030.69;5114940;28;19924;-80
2023/01/20 13:18:26;;;;;;;;;;;;;;;9.66;33.31;100028.72;5106680;28;19915;-80
2023/01/20 13:21:19;;;;;;;;;;;;;;;9.58;34.01;100028.75;5126470;28;20390;-80
2023/01/20 13:24:05;;;;;;;;;;;;;;;9.62;34.79;100029.69;5110557;28;19916;-80
2023/01/20 13:26:49;;;;;;;;;;;;;;;9.69;35.03;100030.81;5126829;28;19912;-80
2023/01/20 13:29:34;;;;;;;;;;;;;;;9.78;36.05;100036.97;5126847;28;19912;-80
2023/01/20 13:32:28;;;;;;;;;;;;;;;9.81;37.65;100030.88;5111284;28;19911;-80
2023/01/20 13:35:18;;;;;;;;;;;;;;;9.82;36.39;100037.13;5109923;28;19915;-80
2023/01/20 13:38:03;;;;;;;;;;;;;;;9.81;36.42;100040.94;5121165;28;19912;-81
2023/01/20 13:40:51;;;;;;;;;;;;;;;9.83;36.67;100039.50;5111413;28;20195;-80
2023/01/20 13:43:42;;;;;;;;;;;;;;;9.84;37.40;100043.84;5127594;28;19911;-80
2023/01/20 13:46:33;;;;;;;;;;;;;;;9.82;37.08;100042.53;5113335;28;19912;-80
2023/01/20 13:49:21;;;;;;;;;;;;;;;9.90;38.57;100047.16;5117170;28;19911;-81
2023/01/20 13:52:07;;;;;;;;;;;;;;;9.84;39.44;100045.75;5127555;28;20180;-81
2023/01/20 13:54:51;;;;;;;;;;;;;;;9.91;39.16;100047.94;5117984;28;19915;-81